sensor_id;sensor_type;location;lat;lon;timestamp;P1;durP1;ratioP1;P2;durP2;ratioP2
48526;SDS011;34317;51.660;5.824;2024-03-23T00:55:21;9.30;;;3.10;;
48526;SDS011;34317;51.660;5.824;2024-03-23T00:57:47;11.32;;;3.00;;
48526;SDS011;34317;51.660;5.824;2024-03-23T01:00:14;14.23;;;3.85;;
48526;SDS011;34317;51.660;5.824;2024-03-23T01:02:41;14.63;;;4.00;;
48526;SDS011;34317;51.660;5.824;2024-03-23T01:05:11;11.65;;;3.80;;
48526;SDS011;34317;51.660;5.824;2024-03-23T01:07:37;11.63;;;3.30;;
48526;SDS011;34317;51.660;5.824;2024-03-23T01:10:03;12.60;;;3.55;;
48526;SDS011;34317;51.660;5.824;2024-03-23T01:12:30;11.73;;;3.30;;
48526;SDS011;34317;51.660;5.824;2024-03-23T01:14:56;8.48;;;3.15;;
48526;SDS011;34317;51.660;5.824;2024-03-23T01:17:24;9.23;;;3.80;;
48526;SDS011;34317;51.660;5.824;2024-03-23T01:19:50;10.65;;;3.38;;
48526;SDS011;34317;51.660;5.824;2024-03-23T01:22:16;12.90;;;3.90;;
48526;SDS011;34317;51.660;5.824;2024-03-23T01:24:43;14.40;;;3.50;;
48526;SDS011;34317;51.660;5.824;2024-03-23T01:27:09;11.07;;;3.35;;
48526;SDS011;34317;51.660;5.824;2024-03-23T01:29:36;12.00;;;3.78;;
48526;SDS011;34317;51.660;5.824;2024-03-23T01:32:02;13.13;;;3.88;;
48526;SDS011;34317;51.660;5.824;2024-03-23T01:34:28;9.90;;;3.88;;
48526;SDS011;34317;51.660;5.824;2024-03-23T01:36:55;13.30;;;3.85;;
48526;SDS011;34317;51.660;5.824;2024-03-23T01:39:21;9.50;;;3.65;;
48526;SDS011;34317;51.660;5.824;2024-03-23T01:41:47;11.25;;;4.15;;
48526;SDS011;34317;51.660;5.824;2024-03-23T01:44:14;9.93;;;3.80;;
48526;SDS011;34317;51.660;5.824;2024-03-23T01:46:41;8.88;;;3.72;;
48526;SDS011;34317;51.660;5.824;2024-03-23T01:49:08;10.80;;;3.75;;
48526;SDS011;34317;51.660;5.824;2024-03-23T01:51:36;11.52;;;3.60;;
48526;SDS011;34317;51.660;5.824;2024-03-23T01:54:03;9.70;;;4.05;;
48526;SDS011;34317;51.660;5.824;2024-03-23T01:56:33;16.67;;;4.30;;
48526;SDS011;34317;51.660;5.824;2024-03-23T01:59:03;12.82;;;4.18;;
48526;SDS011;34317;51.660;5.824;2024-03-23T02:01:30;17.42;;;4.45;;
48526;SDS011;34317;51.660;5.824;2024-03-23T02:03:57;14.75;;;4.40;;
48526;SDS011;34317;51.660;5.824;2024-03-23T02:06:24;14.75;;;4.80;;
48526;SDS011;34317;51.660;5.824;2024-03-23T02:08:51;12.68;;;4.93;;
48526;SDS011;34317;51.660;5.824;2024-03-23T02:11:17;17.42;;;5.47;;
48526;SDS011;34317;51.660;5.824;2024-03-23T02:13:43;15.15;;;4.88;;
48526;SDS011;34317;51.660;5.824;2024-03-23T02:16:10;13.18;;;4.90;;
48526;SDS011;34317;51.660;5.824;2024-03-23T02:18:36;14.38;;;5.13;;
48526;SDS011;34317;51.660;5.824;2024-03-23T02:21:04;17.80;;;5.20;;
48526;SDS011;34317;51.660;5.824;2024-03-23T02:23:30;14.98;;;4.70;;
48526;SDS011;34317;51.660;5.824;2024-03-23T02:25:56;13.52;;;4.13;;
48526;SDS011;34317;51.660;5.824;2024-03-23T02:28:23;11.40;;;4.13;;
48526;SDS011;34317;51.660;5.824;2024-03-23T02:30:49;13.73;;;4.28;;
48526;SDS011;34317;51.660;5.824;2024-03-23T02:33:16;12.23;;;3.95;;
48526;SDS011;34317;51.660;5.824;2024-03-23T02:35:46;18.50;;;4.68;;
48526;SDS011;34317;51.660;5.824;2024-03-23T02:38:13;10.88;;;3.50;;
48526;SDS011;34317;51.660;5.824;2024-03-23T02:40:40;13.30;;;3.78;;
48526;SDS011;34317;51.660;5.824;2024-03-23T02:43:07;13.73;;;4.15;;
48526;SDS011;34317;51.660;5.824;2024-03-23T02:45:33;15.57;;;3.63;;
48526;SDS011;34317;51.660;5.824;2024-03-23T02:47:59;12.43;;;3.67;;
48526;SDS011;34317;51.660;5.824;2024-03-23T02:50:26;10.73;;;3.72;;
48526;SDS011;34317;51.660;5.824;2024-03-23T02:52:52;10.57;;;4.00;;
48526;SDS011;34317;51.660;5.824;2024-03-23T02:55:18;12.30;;;3.65;;
48526;SDS011;34317;51.660;5.824;2024-03-23T02:57:45;18.60;;;4.05;;
48526;SDS011;34317;51.660;5.824;2024-03-23T03:00:11;12.35;;;3.85;;
48526;SDS011;34317;51.660;5.824;2024-03-23T03:02:38;18.13;;;4.03;;
48526;SDS011;34317;51.660;5.824;2024-03-23T03:05:05;12.10;;;4.07;;
48526;SDS011;34317;51.660;5.824;2024-03-23T03:07:32;11.48;;;4.07;;
48526;SDS011;34317;51.660;5.824;2024-03-23T03:09:58;12.98;;;3.97;;
48526;SDS011;34317;51.660;5.824;2024-03-23T03:12:26;14.88;;;4.28;;
48526;SDS011;34317;51.660;5.824;2024-03-23T03:14:53;11.07;;;3.97;;
48526;SDS011;34317;51.660;5.824;2024-03-23T03:17:19;11.70;;;4.18;;
48526;SDS011;34317;51.660;5.824;2024-03-23T03:19:45;10.32;;;4.07;;
48526;SDS011;34317;51.660;5.824;2024-03-23T03:22:12;14.88;;;4.22;;
48526;SDS011;34317;51.660;5.824;2024-03-23T03:24:39;11.10;;;4.18;;
48526;SDS011;34317;51.660;5.824;2024-03-23T03:27:06;20.50;;;5.10;;
48526;SDS011;34317;51.660;5.824;2024-03-23T03:29:33;18.25;;;4.90;;
48526;SDS011;34317;51.660;5.824;2024-03-23T03:32:02;14.80;;;4.80;;
48526;SDS011;34317;51.660;5.824;2024-03-23T03:34:29;13.48;;;5.05;;
48526;SDS011;34317;51.660;5.824;2024-03-23T03:36:58;15.13;;;4.65;;
48526;SDS011;34317;51.660;5.824;2024-03-23T03:39:25;11.68;;;4.55;;
48526;SDS011;34317;51.660;5.824;2024-03-23T03:41:52;14.20;;;4.93;;
48526;SDS011;34317;51.660;5.824;2024-03-23T03:44:18;16.90;;;5.65;;
48526;SDS011;34317;51.660;5.824;2024-03-23T03:46:46;13.32;;;4.85;;
48526;SDS011;34317;51.660;5.824;2024-03-23T03:49:12;13.65;;;5.13;;
48526;SDS011;34317;51.660;5.824;2024-03-23T03:51:38;17.40;;;5.25;;
48526;SDS011;34317;51.660;5.824;2024-03-23T03:54:04;16.95;;;5.25;;
48526;SDS011;34317;51.660;5.824;2024-03-23T03:56:31;15.25;;;5.10;;
48526;SDS011;34317;51.660;5.824;2024-03-23T03:58:57;18.17;;;4.70;;
48526;SDS011;34317;51.660;5.824;2024-03-23T04:01:23;14.82;;;5.00;;
48526;SDS011;34317;51.660;5.824;2024-03-23T04:03:50;19.75;;;5.28;;
48526;SDS011;34317;51.660;5.824;2024-03-23T04:06:19;12.55;;;4.32;;
48526;SDS011;34317;51.660;5.824;2024-03-23T04:08:46;17.25;;;4.50;;
48526;SDS011;34317;51.660;5.824;2024-03-23T04:11:12;14.20;;;4.43;;
48526;SDS011;34317;51.660;5.824;2024-03-23T04:13:39;14.52;;;5.10;;
48526;SDS011;34317;51.660;5.824;2024-03-23T04:16:07;16.48;;;4.50;;
48526;SDS011;34317;51.660;5.824;2024-03-23T04:18:35;13.82;;;4.43;;
48526;SDS011;34317;51.660;5.824;2024-03-23T04:21:01;15.15;;;4.30;;
48526;SDS011;34317;51.660;5.824;2024-03-23T04:23:28;12.70;;;4.38;;
48526;SDS011;34317;51.660;5.824;2024-03-23T04:25:55;14.98;;;4.28;;
48526;SDS011;34317;51.660;5.824;2024-03-23T04:28:21;13.32;;;3.97;;
48526;SDS011;34317;51.660;5.824;2024-03-23T04:30:48;12.90;;;4.47;;
48526;SDS011;34317;51.660;5.824;2024-03-23T04:33:14;12.52;;;4.05;;
48526;SDS011;34317;51.660;5.824;2024-03-23T04:35:41;16.45;;;4.35;;
48526;SDS011;34317;51.660;5.824;2024-03-23T04:38:07;11.60;;;3.80;;
48526;SDS011;34317;51.660;5.824;2024-03-23T04:40:34;10.32;;;3.65;;
48526;SDS011;34317;51.660;5.824;2024-03-23T04:43:04;16.10;;;3.92;;
48526;SDS011;34317;51.660;5.824;2024-03-23T04:45:30;16.70;;;3.50;;
48526;SDS011;34317;51.660;5.824;2024-03-23T04:47:57;17.45;;;3.88;;
48526;SDS011;34317;51.660;5.824;2024-03-23T04:50:23;11.63;;;3.50;;
48526;SDS011;34317;51.660;5.824;2024-03-23T04:52:51;9.45;;;3.58;;
48526;SDS011;34317;51.660;5.824;2024-03-23T04:55:17;11.73;;;3.75;;
48526;SDS011;34317;51.660;5.824;2024-03-23T04:57:43;11.10;;;3.53;;
48526;SDS011;34317;51.660;5.824;2024-03-23T05:00:10;8.25;;;2.67;;
48526;SDS011;34317;51.660;5.824;2024-03-23T05:02:43;13.50;;;3.17;;
48526;SDS011;34317;51.660;5.824;2024-03-23T05:05:11;8.57;;;2.92;;
48526;SDS011;34317;51.660;5.824;2024-03-23T05:07:38;15.18;;;3.17;;
48526;SDS011;34317;51.660;5.824;2024-03-23T05:10:04;16.33;;;3.15;;
48526;SDS011;34317;51.660;5.824;2024-03-23T05:12:31;10.45;;;3.30;;
48526;SDS011;34317;51.660;5.824;2024-03-23T05:14:58;8.45;;;2.05;;
48526;SDS011;34317;51.660;5.824;2024-03-23T05:17:24;4.45;;;1.80;;
48526;SDS011;34317;51.660;5.824;2024-03-23T05:19:51;9.38;;;1.90;;
48526;SDS011;34317;51.660;5.824;2024-03-23T05:22:18;5.82;;;1.85;;
48526;SDS011;34317;51.660;5.824;2024-03-23T05:24:45;12.43;;;2.53;;
48526;SDS011;34317;51.660;5.824;2024-03-23T05:27:11;6.60;;;1.85;;
48526;SDS011;34317;51.660;5.824;2024-03-23T05:29:39;3.95;;;2.00;;
48526;SDS011;34317;51.660;5.824;2024-03-23T05:32:05;6.03;;;1.88;;
48526;SDS011;34317;51.660;5.824;2024-03-23T05:34:33;6.43;;;2.00;;
48526;SDS011;34317;51.660;5.824;2024-03-23T05:36:59;6.15;;;1.95;;
48526;SDS011;34317;51.660;5.824;2024-03-23T05:39:26;7.18;;;2.00;;
48526;SDS011;34317;51.660;5.824;2024-03-23T05:41:52;7.55;;;1.98;;
48526;SDS011;34317;51.660;5.824;2024-03-23T05:44:18;6.05;;;1.75;;
48526;SDS011;34317;51.660;5.824;2024-03-23T05:46:45;5.85;;;1.65;;
48526;SDS011;34317;51.660;5.824;2024-03-23T05:49:15;6.78;;;2.20;;
48526;SDS011;34317;51.660;5.824;2024-03-23T05:51:42;4.28;;;1.63;;
48526;SDS011;34317;51.660;5.824;2024-03-23T05:54:09;7.93;;;2.03;;
48526;SDS011;34317;51.660;5.824;2024-03-23T05:56:35;9.35;;;1.95;;
48526;SDS011;34317;51.660;5.824;2024-03-23T05:59:01;5.43;;;1.88;;
48526;SDS011;34317;51.660;5.824;2024-03-23T06:01:29;4.10;;;1.38;;
48526;SDS011;34317;51.660;5.824;2024-03-23T06:03:58;3.95;;;1.63;;
48526;SDS011;34317;51.660;5.824;2024-03-23T06:06:27;6.07;;;2.03;;
48526;SDS011;34317;51.660;5.824;2024-03-23T06:08:56;9.45;;;2.20;;
48526;SDS011;34317;51.660;5.824;2024-03-23T06:11:22;7.38;;;2.20;;
48526;SDS011;34317;51.660;5.824;2024-03-23T06:13:48;6.88;;;2.03;;
48526;SDS011;34317;51.660;5.824;2024-03-23T06:16:15;6.78;;;2.65;;
48526;SDS011;34317;51.660;5.824;2024-03-23T06:18:41;9.05;;;2.35;;
48526;SDS011;34317;51.660;5.824;2024-03-23T06:21:12;8.48;;;2.42;;
48526;SDS011;34317;51.660;5.824;2024-03-23T06:23:40;7.43;;;2.50;;
48526;SDS011;34317;51.660;5.824;2024-03-23T06:26:07;6.18;;;2.13;;
48526;SDS011;34317;51.660;5.824;2024-03-23T06:28:34;8.70;;;2.55;;
48526;SDS011;34317;51.660;5.824;2024-03-23T06:31:00;6.55;;;1.92;;
48526;SDS011;34317;51.660;5.824;2024-03-23T06:33:27;5.47;;;2.17;;
48526;SDS011;34317;51.660;5.824;2024-03-23T06:35:53;8.60;;;2.70;;
48526;SDS011;34317;51.660;5.824;2024-03-23T06:38:19;6.47;;;2.50;;
48526;SDS011;34317;51.660;5.824;2024-03-23T06:40:46;6.20;;;2.17;;
48526;SDS011;34317;51.660;5.824;2024-03-23T06:43:14;8.63;;;2.25;;
48526;SDS011;34317;51.660;5.824;2024-03-23T06:45:41;7.75;;;2.20;;
48526;SDS011;34317;51.660;5.824;2024-03-23T06:48:07;9.38;;;2.33;;
48526;SDS011;34317;51.660;5.824;2024-03-23T06:50:34;8.10;;;2.63;;
48526;SDS011;34317;51.660;5.824;2024-03-23T06:53:00;6.65;;;2.40;;
48526;SDS011;34317;51.660;5.824;2024-03-23T06:55:28;10.82;;;2.90;;
48526;SDS011;34317;51.660;5.824;2024-03-23T06:57:55;4.88;;;2.30;;
48526;SDS011;34317;51.660;5.824;2024-03-23T07:00:21;8.13;;;2.70;;
48526;SDS011;34317;51.660;5.824;2024-03-23T07:02:48;7.88;;;2.30;;
48526;SDS011;34317;51.660;5.824;2024-03-23T07:05:15;10.10;;;2.95;;
48526;SDS011;34317;51.660;5.824;2024-03-23T07:07:41;11.35;;;2.88;;
48526;SDS011;34317;51.660;5.824;2024-03-23T07:10:08;7.90;;;2.17;;
48526;SDS011;34317;51.660;5.824;2024-03-23T07:12:34;15.45;;;2.30;;
48526;SDS011;34317;51.660;5.824;2024-03-23T07:15:01;16.02;;;2.63;;
48526;SDS011;34317;51.660;5.824;2024-03-23T07:17:30;11.05;;;2.33;;
48526;SDS011;34317;51.660;5.824;2024-03-23T07:19:58;9.88;;;2.10;;
48526;SDS011;34317;51.660;5.824;2024-03-23T07:22:27;12.00;;;2.00;;
48526;SDS011;34317;51.660;5.824;2024-03-23T07:24:53;7.18;;;2.15;;
48526;SDS011;34317;51.660;5.824;2024-03-23T07:27:20;6.93;;;2.05;;
48526;SDS011;34317;51.660;5.824;2024-03-23T07:29:47;8.57;;;2.45;;
48526;SDS011;34317;51.660;5.824;2024-03-23T07:32:13;10.10;;;2.30;;
48526;SDS011;34317;51.660;5.824;2024-03-23T07:34:40;8.90;;;2.42;;
48526;SDS011;34317;51.660;5.824;2024-03-23T07:37:06;8.70;;;2.20;;
48526;SDS011;34317;51.660;5.824;2024-03-23T07:39:32;7.35;;;2.03;;
48526;SDS011;34317;51.660;5.824;2024-03-23T07:42:02;7.13;;;1.95;;
48526;SDS011;34317;51.660;5.824;2024-03-23T07:44:28;3.70;;;1.65;;
48526;SDS011;34317;51.660;5.824;2024-03-23T07:46:54;5.30;;;1.50;;
48526;SDS011;34317;51.660;5.824;2024-03-23T07:49:21;4.55;;;1.33;;
48526;SDS011;34317;51.660;5.824;2024-03-23T07:51:47;6.88;;;1.70;;
48526;SDS011;34317;51.660;5.824;2024-03-23T07:54:14;3.70;;;1.08;;
48526;SDS011;34317;51.660;5.824;2024-03-23T07:56:40;3.42;;;1.25;;
48526;SDS011;34317;51.660;5.824;2024-03-23T07:59:06;8.45;;;1.48;;
48526;SDS011;34317;51.660;5.824;2024-03-23T08:01:33;9.57;;;1.60;;
48526;SDS011;34317;51.660;5.824;2024-03-23T08:03:59;6.55;;;1.63;;
48526;SDS011;34317;51.660;5.824;2024-03-23T08:06:26;5.47;;;1.50;;
48526;SDS011;34317;51.660;5.824;2024-03-23T08:08:54;8.60;;;1.77;;
48526;SDS011;34317;51.660;5.824;2024-03-23T08:11:31;12.97;;;1.90;;
48526;SDS011;34317;51.660;5.824;2024-03-23T08:14:00;6.32;;;1.77;;
48526;SDS011;34317;51.660;5.824;2024-03-23T08:16:27;7.95;;;1.50;;
48526;SDS011;34317;51.660;5.824;2024-03-23T08:18:54;6.60;;;1.50;;
48526;SDS011;34317;51.660;5.824;2024-03-23T08:21:24;9.82;;;1.80;;
48526;SDS011;34317;51.660;5.824;2024-03-23T08:23:52;5.65;;;1.55;;
48526;SDS011;34317;51.660;5.824;2024-03-23T08:26:18;6.38;;;1.98;;
48526;SDS011;34317;51.660;5.824;2024-03-23T08:28:45;7.50;;;1.42;;
48526;SDS011;34317;51.660;5.824;2024-03-23T08:31:12;7.80;;;1.45;;
48526;SDS011;34317;51.660;5.824;2024-03-23T08:33:40;8.38;;;1.90;;
48526;SDS011;34317;51.660;5.824;2024-03-23T08:36:09;5.05;;;1.63;;
48526;SDS011;34317;51.660;5.824;2024-03-23T08:38:38;7.88;;;1.63;;
48526;SDS011;34317;51.660;5.824;2024-03-23T08:41:10;7.82;;;1.42;;
48526;SDS011;34317;51.660;5.824;2024-03-23T08:43:37;6.80;;;1.65;;
48526;SDS011;34317;51.660;5.824;2024-03-23T08:46:06;7.55;;;1.60;;
48526;SDS011;34317;51.660;5.824;2024-03-23T08:48:44;11.55;;;1.83;;
48526;SDS011;34317;51.660;5.824;2024-03-23T08:51:12;7.32;;;1.50;;
48526;SDS011;34317;51.660;5.824;2024-03-23T08:53:40;5.30;;;1.33;;
48526;SDS011;34317;51.660;5.824;2024-03-23T08:56:07;4.80;;;1.45;;
48526;SDS011;34317;51.660;5.824;2024-03-23T08:58:34;10.68;;;1.42;;
48526;SDS011;34317;51.660;5.824;2024-03-23T09:01:06;8.60;;;1.40;;
48526;SDS011;34317;51.660;5.824;2024-03-23T09:03:34;3.00;;;1.20;;
48526;SDS011;34317;51.660;5.824;2024-03-23T09:06:02;8.38;;;1.40;;
48526;SDS011;34317;51.660;5.824;2024-03-23T09:08:32;3.53;;;1.00;;
48526;SDS011;34317;51.660;5.824;2024-03-23T09:11:03;3.97;;;1.02;;
48526;SDS011;34317;51.660;5.824;2024-03-23T09:13:33;3.55;;;1.10;;
48526;SDS011;34317;51.660;5.824;2024-03-23T09:15:59;1.52;;;0.60;;
48526;SDS011;34317;51.660;5.824;2024-03-23T09:18:26;1.60;;;0.90;;
48526;SDS011;34317;51.660;5.824;2024-03-23T09:20:52;2.55;;;1.00;;
48526;SDS011;34317;51.660;5.824;2024-03-23T09:23:20;5.55;;;1.55;;
48526;SDS011;34317;51.660;5.824;2024-03-23T09:25:47;4.10;;;1.23;;
48526;SDS011;34317;51.660;5.824;2024-03-23T09:28:13;4.60;;;1.20;;
48526;SDS011;34317;51.660;5.824;2024-03-23T09:30:40;4.38;;;1.15;;
48526;SDS011;34317;51.660;5.824;2024-03-23T09:33:10;2.22;;;0.85;;
48526;SDS011;34317;51.660;5.824;2024-03-23T09:35:40;2.40;;;0.88;;
48526;SDS011;34317;51.660;5.824;2024-03-23T09:38:08;6.45;;;0.80;;
48526;SDS011;34317;51.660;5.824;2024-03-23T09:40:44;3.88;;;0.90;;
48526;SDS011;34317;51.660;5.824;2024-03-23T09:43:11;3.47;;;0.88;;
48526;SDS011;34317;51.660;5.824;2024-03-23T09:45:38;5.72;;;1.20;;
48526;SDS011;34317;51.660;5.824;2024-03-23T09:48:06;3.35;;;1.10;;
48526;SDS011;34317;51.660;5.824;2024-03-23T09:50:36;3.55;;;1.00;;
48526;SDS011;34317;51.660;5.824;2024-03-23T09:53:09;3.73;;;1.03;;
48526;SDS011;34317;51.660;5.824;2024-03-23T09:55:40;4.25;;;1.35;;
48526;SDS011;34317;51.660;5.824;2024-03-23T09:58:08;4.88;;;1.10;;
48526;SDS011;34317;51.660;5.824;2024-03-23T10:00:38;6.47;;;1.40;;
48526;SDS011;34317;51.660;5.824;2024-03-23T10:03:05;3.65;;;1.17;;
48526;SDS011;34317;51.660;5.824;2024-03-23T10:05:33;3.67;;;1.20;;
48526;SDS011;34317;51.660;5.824;2024-03-23T10:08:20;7.05;;;1.20;;
48526;SDS011;34317;51.660;5.824;2024-03-23T10:10:47;3.90;;;1.20;;
48526;SDS011;34317;51.660;5.824;2024-03-23T10:13:28;5.38;;;1.40;;
48526;SDS011;34317;51.660;5.824;2024-03-23T10:15:56;7.78;;;1.42;;
48526;SDS011;34317;51.660;5.824;2024-03-23T10:18:24;4.07;;;1.15;;
48526;SDS011;34317;51.660;5.824;2024-03-23T10:23:47;4.88;;;1.27;;
48526;SDS011;34317;51.660;5.824;2024-03-23T10:26:16;5.65;;;1.30;;
48526;SDS011;34317;51.660;5.824;2024-03-23T10:31:20;4.30;;;1.10;;
48526;SDS011;34317;51.660;5.824;2024-03-23T10:33:47;6.50;;;1.65;;
48526;SDS011;34317;51.660;5.824;2024-03-23T10:36:14;3.58;;;1.17;;
48526;SDS011;34317;51.660;5.824;2024-03-23T10:38:42;7.43;;;1.33;;
48526;SDS011;34317;51.660;5.824;2024-03-23T10:41:10;6.40;;;1.05;;
48526;SDS011;34317;51.660;5.824;2024-03-23T10:43:37;4.43;;;1.15;;
48526;SDS011;34317;51.660;5.824;2024-03-23T10:46:04;5.65;;;1.23;;
48526;SDS011;34317;51.660;5.824;2024-03-23T10:48:32;4.35;;;1.05;;
48526;SDS011;34317;51.660;5.824;2024-03-23T10:50:59;5.53;;;1.40;;
48526;SDS011;34317;51.660;5.824;2024-03-23T10:53:26;6.60;;;1.30;;
48526;SDS011;34317;51.660;5.824;2024-03-23T10:55:54;4.18;;;1.10;;
48526;SDS011;34317;51.660;5.824;2024-03-23T10:58:23;2.45;;;0.95;;
48526;SDS011;34317;51.660;5.824;2024-03-23T11:00:53;4.65;;;1.25;;
48526;SDS011;34317;51.660;5.824;2024-03-23T11:06:37;4.50;;;1.02;;
48526;SDS011;34317;51.660;5.824;2024-03-23T11:09:14;5.70;;;0.98;;
48526;SDS011;34317;51.660;5.824;2024-03-23T11:15:05;2.53;;;0.80;;
48526;SDS011;34317;51.660;5.824;2024-03-23T11:17:38;2.63;;;1.10;;
48526;SDS011;34317;51.660;5.824;2024-03-23T11:20:05;3.13;;;1.27;;
48526;SDS011;34317;51.660;5.824;2024-03-23T11:22:38;9.32;;;1.30;;
48526;SDS011;34317;51.660;5.824;2024-03-23T11:25:22;3.13;;;0.90;;
48526;SDS011;34317;51.660;5.824;2024-03-23T11:27:53;4.70;;;1.40;;
48526;SDS011;34317;51.660;5.824;2024-03-23T11:30:22;3.95;;;1.13;;
48526;SDS011;34317;51.660;5.824;2024-03-23T11:32:50;3.58;;;1.15;;
48526;SDS011;34317;51.660;5.824;2024-03-23T11:38:10;7.00;;;1.30;;
48526;SDS011;34317;51.660;5.824;2024-03-23T11:40:38;5.05;;;1.00;;
48526;SDS011;34317;51.660;5.824;2024-03-23T11:43:11;4.80;;;1.08;;
48526;SDS011;34317;51.660;5.824;2024-03-23T11:45:45;1.65;;;0.80;;
48526;SDS011;34317;51.660;5.824;2024-03-23T11:48:15;2.15;;;0.60;;
48526;SDS011;34317;51.660;5.824;2024-03-23T11:50:44;2.38;;;0.80;;
48526;SDS011;34317;51.660;5.824;2024-03-23T11:53:18;2.17;;;0.50;;
48526;SDS011;34317;51.660;5.824;2024-03-23T11:58:23;1.90;;;0.60;;
48526;SDS011;34317;51.660;5.824;2024-03-23T12:00:51;1.73;;;0.70;;
48526;SDS011;34317;51.660;5.824;2024-03-23T12:03:22;2.47;;;0.63;;
48526;SDS011;34317;51.660;5.824;2024-03-23T12:05:52;3.10;;;0.90;;
48526;SDS011;34317;51.660;5.824;2024-03-23T12:08:24;4.13;;;0.80;;
48526;SDS011;34317;51.660;5.824;2024-03-23T12:13:33;3.05;;;0.70;;
48526;SDS011;34317;51.660;5.824;2024-03-23T12:18:55;3.03;;;0.80;;
48526;SDS011;34317;51.660;5.824;2024-03-23T12:21:31;2.78;;;0.70;;
48526;SDS011;34317;51.660;5.824;2024-03-23T12:23:57;3.97;;;0.98;;
48526;SDS011;34317;51.660;5.824;2024-03-23T12:26:24;4.35;;;0.68;;
48526;SDS011;34317;51.660;5.824;2024-03-23T12:28:51;1.00;;;0.55;;
48526;SDS011;34317;51.660;5.824;2024-03-23T12:31:17;3.25;;;0.90;;
48526;SDS011;34317;51.660;5.824;2024-03-23T12:33:43;2.17;;;0.93;;
48526;SDS011;34317;51.660;5.824;2024-03-23T12:36:10;2.83;;;0.80;;
48526;SDS011;34317;51.660;5.824;2024-03-23T12:38:38;5.75;;;1.05;;
48526;SDS011;34317;51.660;5.824;2024-03-23T12:41:04;2.70;;;0.90;;
48526;SDS011;34317;51.660;5.824;2024-03-23T12:43:31;3.97;;;0.95;;
48526;SDS011;34317;51.660;5.824;2024-03-23T12:45:57;4.72;;;1.33;;
48526;SDS011;34317;51.660;5.824;2024-03-23T12:48:23;4.47;;;1.05;;
48526;SDS011;34317;51.660;5.824;2024-03-23T12:50:54;2.95;;;1.20;;
48526;SDS011;34317;51.660;5.824;2024-03-23T12:53:20;5.45;;;0.93;;
48526;SDS011;34317;51.660;5.824;2024-03-23T12:55:47;5.47;;;0.80;;
48526;SDS011;34317;51.660;5.824;2024-03-23T12:58:14;2.88;;;0.98;;
48526;SDS011;34317;51.660;5.824;2024-03-23T13:00:40;3.40;;;0.85;;
48526;SDS011;34317;51.660;5.824;2024-03-23T13:03:06;3.00;;;0.80;;
48526;SDS011;34317;51.660;5.824;2024-03-23T13:05:33;3.15;;;0.70;;
48526;SDS011;34317;51.660;5.824;2024-03-23T13:07:59;2.38;;;0.80;;
48526;SDS011;34317;51.660;5.824;2024-03-23T13:10:26;2.92;;;0.77;;
48526;SDS011;34317;51.660;5.824;2024-03-23T13:12:53;2.28;;;0.98;;
48526;SDS011;34317;51.660;5.824;2024-03-23T13:15:19;1.88;;;0.85;;
48526;SDS011;34317;51.660;5.824;2024-03-23T13:17:46;5.05;;;1.00;;
48526;SDS011;34317;51.660;5.824;2024-03-23T13:20:12;3.20;;;0.82;;
48526;SDS011;34317;51.660;5.824;2024-03-23T13:22:40;2.28;;;0.80;;
48526;SDS011;34317;51.660;5.824;2024-03-23T13:25:08;2.17;;;0.80;;
48526;SDS011;34317;51.660;5.824;2024-03-23T13:27:34;3.05;;;0.88;;
48526;SDS011;34317;51.660;5.824;2024-03-23T13:30:01;5.07;;;1.08;;
48526;SDS011;34317;51.660;5.824;2024-03-23T13:32:29;3.72;;;0.80;;
48526;SDS011;34317;51.660;5.824;2024-03-23T13:34:56;4.28;;;0.80;;
48526;SDS011;34317;51.660;5.824;2024-03-23T13:37:22;4.07;;;0.70;;
48526;SDS011;34317;51.660;5.824;2024-03-23T13:39:48;4.63;;;0.80;;
48526;SDS011;34317;51.660;5.824;2024-03-23T13:42:15;4.68;;;0.90;;
48526;SDS011;34317;51.660;5.824;2024-03-23T13:44:42;4.25;;;1.00;;
48526;SDS011;34317;51.660;5.824;2024-03-23T13:47:08;2.58;;;0.75;;
48526;SDS011;34317;51.660;5.824;2024-03-23T13:49:35;2.08;;;0.77;;
48526;SDS011;34317;51.660;5.824;2024-03-23T13:52:02;3.58;;;0.95;;
48526;SDS011;34317;51.660;5.824;2024-03-23T13:54:28;3.97;;;0.90;;
48526;SDS011;34317;51.660;5.824;2024-03-23T13:56:55;2.88;;;0.95;;
48526;SDS011;34317;51.660;5.824;2024-03-23T13:59:22;6.22;;;0.80;;
48526;SDS011;34317;51.660;5.824;2024-03-23T14:01:50;3.63;;;0.90;;
48526;SDS011;34317;51.660;5.824;2024-03-23T14:04:19;6.03;;;0.90;;
48526;SDS011;34317;51.660;5.824;2024-03-23T14:06:46;2.88;;;0.90;;
48526;SDS011;34317;51.660;5.824;2024-03-23T14:09:13;3.05;;;0.60;;
48526;SDS011;34317;51.660;5.824;2024-03-23T14:11:40;6.85;;;1.20;;
48526;SDS011;34317;51.660;5.824;2024-03-23T14:14:12;3.08;;;0.77;;
48526;SDS011;34317;51.660;5.824;2024-03-23T14:16:38;4.68;;;1.15;;
48526;SDS011;34317;51.660;5.824;2024-03-23T14:19:05;3.38;;;0.82;;
48526;SDS011;34317;51.660;5.824;2024-03-23T14:21:32;2.85;;;0.75;;
48526;SDS011;34317;51.660;5.824;2024-03-23T14:23:58;4.00;;;1.00;;
48526;SDS011;34317;51.660;5.824;2024-03-23T14:26:24;7.22;;;0.90;;
48526;SDS011;34317;51.660;5.824;2024-03-23T14:28:51;6.78;;;1.23;;
48526;SDS011;34317;51.660;5.824;2024-03-23T14:31:17;7.00;;;0.85;;
48526;SDS011;34317;51.660;5.824;2024-03-23T14:33:44;5.38;;;0.90;;
48526;SDS011;34317;51.660;5.824;2024-03-23T14:36:15;4.75;;;0.90;;
48526;SDS011;34317;51.660;5.824;2024-03-23T14:38:49;4.07;;;0.93;;
48526;SDS011;34317;51.660;5.824;2024-03-23T14:41:16;3.25;;;0.85;;
48526;SDS011;34317;51.660;5.824;2024-03-23T14:43:42;3.38;;;0.80;;
48526;SDS011;34317;51.660;5.824;2024-03-23T14:46:13;3.13;;;0.90;;
48526;SDS011;34317;51.660;5.824;2024-03-23T14:48:41;3.47;;;0.70;;
48526;SDS011;34317;51.660;5.824;2024-03-23T14:51:08;9.13;;;1.23;;
48526;SDS011;34317;51.660;5.824;2024-03-23T14:53:36;4.65;;;0.98;;
48526;SDS011;34317;51.660;5.824;2024-03-23T14:56:06;5.00;;;0.90;;
48526;SDS011;34317;51.660;5.824;2024-03-23T14:58:33;6.55;;;0.75;;
48526;SDS011;34317;51.660;5.824;2024-03-23T15:01:06;2.85;;;0.70;;
48526;SDS011;34317;51.660;5.824;2024-03-23T15:03:37;4.03;;;0.75;;
48526;SDS011;34317;51.660;5.824;2024-03-23T15:06:05;2.55;;;0.98;;
48526;SDS011;34317;51.660;5.824;2024-03-23T15:08:35;4.00;;;0.77;;
48526;SDS011;34317;51.660;5.824;2024-03-23T15:11:02;3.67;;;0.90;;
48526;SDS011;34317;51.660;5.824;2024-03-23T15:13:34;3.10;;;0.70;;
48526;SDS011;34317;51.660;5.824;2024-03-23T15:16:01;2.70;;;1.02;;
48526;SDS011;34317;51.660;5.824;2024-03-23T15:18:30;5.75;;;0.85;;
48526;SDS011;34317;51.660;5.824;2024-03-23T15:21:00;2.03;;;0.75;;
48526;SDS011;34317;51.660;5.824;2024-03-23T15:23:37;4.50;;;0.80;;
48526;SDS011;34317;51.660;5.824;2024-03-23T15:26:04;3.20;;;0.82;;
48526;SDS011;34317;51.660;5.824;2024-03-23T15:28:32;5.00;;;0.95;;
48526;SDS011;34317;51.660;5.824;2024-03-23T15:31:07;1.92;;;0.60;;
48526;SDS011;34317;51.660;5.824;2024-03-23T15:33:37;5.30;;;0.88;;
48526;SDS011;34317;51.660;5.824;2024-03-23T15:36:05;1.83;;;0.70;;
48526;SDS011;34317;51.660;5.824;2024-03-23T15:38:32;0.80;;;0.50;;
48526;SDS011;34317;51.660;5.824;2024-03-23T15:40:59;1.95;;;0.60;;
48526;SDS011;34317;51.660;5.824;2024-03-23T15:43:25;2.47;;;0.40;;
48526;SDS011;34317;51.660;5.824;2024-03-23T15:48:23;1.52;;;0.47;;
48526;SDS011;34317;51.660;5.824;2024-03-23T15:50:53;1.63;;;0.68;;
48526;SDS011;34317;51.660;5.824;2024-03-23T15:53:20;1.92;;;0.50;;
48526;SDS011;34317;51.660;5.824;2024-03-23T15:55:57;1.33;;;0.70;;
48526;SDS011;34317;51.660;5.824;2024-03-23T15:58:25;2.05;;;0.73;;
48526;SDS011;34317;51.660;5.824;2024-03-23T16:00:55;2.08;;;0.70;;
48526;SDS011;34317;51.660;5.824;2024-03-23T16:03:28;2.33;;;0.70;;
48526;SDS011;34317;51.660;5.824;2024-03-23T16:05:56;1.80;;;0.90;;